sensor_id;sensor_type;location;lat;lon;timestamp;temperature;humidity
13721;DHT22;6932;51.438;5.470;2023-08-24T00:02:11;23.10;99.90
13721;DHT22;6932;51.438;5.470;2023-08-24T00:04:37;23.10;99.90
13721;DHT22;6932;51.438;5.470;2023-08-24T00:07:03;23.10;99.90
13721;DHT22;6932;51.438;5.470;2023-08-24T00:09:29;23.10;99.90
13721;DHT22;6932;51.438;5.470;2023-08-24T00:11:55;23.10;99.90
13721;DHT22;6932;51.438;5.470;2023-08-24T00:14:21;23.10;99.90
13721;DHT22;6932;51.438;5.470;2023-08-24T00:16:47;23.10;99.90
13721;DHT22;6932;51.438;5.470;2023-08-24T00:19:12;23.00;99.90
13721;DHT22;6932;51.438;5.470;2023-08-24T00:21:38;23.00;99.90
13721;DHT22;6932;51.438;5.470;2023-08-24T00:24:04;23.00;99.90
13721;DHT22;6932;51.438;5.470;2023-08-24T00:26:30;23.00;99.90
13721;DHT22;6932;51.438;5.470;2023-08-24T00:28:56;23.00;99.90
13721;DHT22;6932;51.438;5.470;2023-08-24T00:31:22;23.00;99.90
13721;DHT22;6932;51.438;5.470;2023-08-24T00:33:48;23.00;99.90
13721;DHT22;6932;51.438;5.470;2023-08-24T00:36:15;23.00;99.90
13721;DHT22;6932;51.438;5.470;2023-08-24T00:38:43;23.00;99.90
13721;DHT22;6932;51.438;5.470;2023-08-24T00:41:09;23.00;99.90
13721;DHT22;6932;51.438;5.470;2023-08-24T00:43:35;23.00;99.90
13721;DHT22;6932;51.438;5.470;2023-08-24T00:46:01;23.00;99.90
13721;DHT22;6932;51.438;5.470;2023-08-24T00:48:29;23.00;99.90
13721;DHT22;6932;51.438;5.470;2023-08-24T00:50:59;23.00;99.90
13721;DHT22;6932;51.438;5.470;2023-08-24T00:53:28;22.90;99.90
13721;DHT22;6932;51.438;5.470;2023-08-24T00:55:55;23.00;99.90
13721;DHT22;6932;51.438;5.470;2023-08-24T00:58:21;23.00;99.90
13721;DHT22;6932;51.438;5.470;2023-08-24T01:00:52;22.90;99.90
13721;DHT22;6932;51.438;5.470;2023-08-24T01:03:21;23.00;99.90
13721;DHT22;6932;51.438;5.470;2023-08-24T01:05:48;23.00;99.90
13721;DHT22;6932;51.438;5.470;2023-08-24T01:08:14;23.00;99.90
13721;DHT22;6932;51.438;5.470;2023-08-24T01:13:23;23.00;99.90
13721;DHT22;6932;51.438;5.470;2023-08-24T01:16:07;23.00;99.90
13721;DHT22;6932;51.438;5.470;2023-08-24T01:18:36;23.00;99.90
13721;DHT22;6932;51.438;5.470;2023-08-24T01:21:04;23.00;99.90
13721;DHT22;6932;51.438;5.470;2023-08-24T01:23:43;23.00;99.90
13721;DHT22;6932;51.438;5.470;2023-08-24T01:26:22;22.90;99.90
13721;DHT22;6932;51.438;5.470;2023-08-24T01:28:54;22.90;99.90
13721;DHT22;6932;51.438;5.470;2023-08-24T01:35:06;22.90;99.90
13721;DHT22;6932;51.438;5.470;2023-08-24T01:37:34;22.90;99.90
13721;DHT22;6932;51.438;5.470;2023-08-24T01:40:33;22.80;99.90
13721;DHT22;6932;51.438;5.470;2023-08-24T01:43:13;22.80;99.90
13721;DHT22;6932;51.438;5.470;2023-08-24T01:45:41;22.80;99.90
13721;DHT22;6932;51.438;5.470;2023-08-24T01:48:09;22.80;99.90
13721;DHT22;6932;51.438;5.470;2023-08-24T01:50:36;22.80;99.90
13721;DHT22;6932;51.438;5.470;2023-08-24T01:53:02;22.80;99.90
13721;DHT22;6932;51.438;5.470;2023-08-24T01:55:29;22.80;99.90
13721;DHT22;6932;51.438;5.470;2023-08-24T01:57:55;22.80;99.90
13721;DHT22;6932;51.438;5.470;2023-08-24T02:00:22;22.80;99.90
13721;DHT22;6932;51.438;5.470;2023-08-24T02:02:48;22.80;99.90
13721;DHT22;6932;51.438;5.470;2023-08-24T02:05:14;22.80;99.90
13721;DHT22;6932;51.438;5.470;2023-08-24T02:07:40;22.80;99.90
13721;DHT22;6932;51.438;5.470;2023-08-24T02:10:06;22.90;99.90
13721;DHT22;6932;51.438;5.470;2023-08-24T02:12:33;23.00;99.90
13721;DHT22;6932;51.438;5.470;2023-08-24T02:14:58;23.00;99.90
13721;DHT22;6932;51.438;5.470;2023-08-24T02:17:25;23.00;99.90
13721;DHT22;6932;51.438;5.470;2023-08-24T02:19:51;23.00;99.90
13721;DHT22;6932;51.438;5.470;2023-08-24T02:22:17;23.00;99.90
13721;DHT22;6932;51.438;5.470;2023-08-24T02:24:43;23.00;99.90
13721;DHT22;6932;51.438;5.470;2023-08-24T02:27:09;22.90;99.90
13721;DHT22;6932;51.438;5.470;2023-08-24T02:29:35;22.90;99.90
13721;DHT22;6932;51.438;5.470;2023-08-24T02:32:01;22.90;99.90
13721;DHT22;6932;51.438;5.470;2023-08-24T02:34:27;22.90;99.90
13721;DHT22;6932;51.438;5.470;2023-08-24T02:36:52;22.80;99.90
13721;DHT22;6932;51.438;5.470;2023-08-24T02:39:18;22.80;99.90
13721;DHT22;6932;51.438;5.470;2023-08-24T02:41:44;22.80;99.90
13721;DHT22;6932;51.438;5.470;2023-08-24T02:44:09;22.80;99.90
13721;DHT22;6932;51.438;5.470;2023-08-24T02:46:35;22.80;99.90
13721;DHT22;6932;51.438;5.470;2023-08-24T02:49:01;22.80;99.90
13721;DHT22;6932;51.438;5.470;2023-08-24T02:51:27;22.80;99.90
13721;DHT22;6932;51.438;5.470;2023-08-24T02:53:52;22.80;99.90
13721;DHT22;6932;51.438;5.470;2023-08-24T02:56:18;22.80;99.90
13721;DHT22;6932;51.438;5.470;2023-08-24T02:58:44;22.80;99.90
13721;DHT22;6932;51.438;5.470;2023-08-24T03:01:10;22.70;99.90
13721;DHT22;6932;51.438;5.470;2023-08-24T03:03:36;22.80;99.90
13721;DHT22;6932;51.438;5.470;2023-08-24T03:06:04;22.70;99.90
13721;DHT22;6932;51.438;5.470;2023-08-24T03:08:32;22.70;99.90
13721;DHT22;6932;51.438;5.470;2023-08-24T03:10:59;22.70;99.90
13721;DHT22;6932;51.438;5.470;2023-08-24T03:13:26;22.60;99.90
13721;DHT22;6932;51.438;5.470;2023-08-24T03:15:53;22.60;99.90
13721;DHT22;6932;51.438;5.470;2023-08-24T03:18:19;22.60;99.90
13721;DHT22;6932;51.438;5.470;2023-08-24T03:20:46;22.60;99.90
13721;DHT22;6932;51.438;5.470;2023-08-24T03:23:13;22.60;99.90
13721;DHT22;6932;51.438;5.470;2023-08-24T03:25:41;22.50;99.90
13721;DHT22;6932;51.438;5.470;2023-08-24T03:28:08;22.50;99.90
13721;DHT22;6932;51.438;5.470;2023-08-24T03:30:36;22.50;99.90
13721;DHT22;6932;51.438;5.470;2023-08-24T03:33:03;22.60;99.90
13721;DHT22;6932;51.438;5.470;2023-08-24T03:35:33;22.50;99.90
13721;DHT22;6932;51.438;5.470;2023-08-24T03:37:59;22.50;99.90
13721;DHT22;6932;51.438;5.470;2023-08-24T03:40:25;22.50;99.90
13721;DHT22;6932;51.438;5.470;2023-08-24T03:42:51;22.50;99.90
13721;DHT22;6932;51.438;5.470;2023-08-24T03:45:19;22.50;99.90
13721;DHT22;6932;51.438;5.470;2023-08-24T03:47:45;22.50;99.90
13721;DHT22;6932;51.438;5.470;2023-08-24T03:50:11;22.50;99.90
13721;DHT22;6932;51.438;5.470;2023-08-24T03:52:36;22.50;99.90
13721;DHT22;6932;51.438;5.470;2023-08-24T03:55:05;22.50;99.90
13721;DHT22;6932;51.438;5.470;2023-08-24T03:57:32;22.40;99.90
13721;DHT22;6932;51.438;5.470;2023-08-24T03:59:58;22.40;99.90
13721;DHT22;6932;51.438;5.470;2023-08-24T04:02:23;22.40;99.90
13721;DHT22;6932;51.438;5.470;2023-08-24T04:04:50;22.40;99.90
13721;DHT22;6932;51.438;5.470;2023-08-24T04:07:16;22.40;99.90
13721;DHT22;6932;51.438;5.470;2023-08-24T04:09:42;22.40;99.90
13721;DHT22;6932;51.438;5.470;2023-08-24T04:12:08;22.40;99.90
13721;DHT22;6932;51.438;5.470;2023-08-24T04:14:34;22.40;99.90
13721;DHT22;6932;51.438;5.470;2023-08-24T04:16:59;22.40;99.90
13721;DHT22;6932;51.438;5.470;2023-08-24T04:19:25;22.40;99.90
13721;DHT22;6932;51.438;5.470;2023-08-24T04:21:51;22.40;99.90
13721;DHT22;6932;51.438;5.470;2023-08-24T04:24:17;22.40;99.90
13721;DHT22;6932;51.438;5.470;2023-08-24T04:26:42;22.40;99.90
13721;DHT22;6932;51.438;5.470;2023-08-24T04:29:08;22.40;99.90
13721;DHT22;6932;51.438;5.470;2023-08-24T04:31:34;22.40;99.90
13721;DHT22;6932;51.438;5.470;2023-08-24T04:34:00;22.50;99.90
13721;DHT22;6932;51.438;5.470;2023-08-24T04:36:26;22.50;99.90
13721;DHT22;6932;51.438;5.470;2023-08-24T04:38:52;22.60;99.90
13721;DHT22;6932;51.438;5.470;2023-08-24T04:41:17;22.60;99.90
13721;DHT22;6932;51.438;5.470;2023-08-24T04:43:43;22.70;99.90
13721;DHT22;6932;51.438;5.470;2023-08-24T04:46:09;22.70;99.90
13721;DHT22;6932;51.438;5.470;2023-08-24T04:48:35;22.70;99.90
13721;DHT22;6932;51.438;5.470;2023-08-24T04:51:01;22.80;99.90
13721;DHT22;6932;51.438;5.470;2023-08-24T04:53:27;22.80;99.90
13721;DHT22;6932;51.438;5.470;2023-08-24T04:55:53;22.70;99.90
13721;DHT22;6932;51.438;5.470;2023-08-24T04:58:19;22.70;99.90
13721;DHT22;6932;51.438;5.470;2023-08-24T05:00:45;22.70;99.90
13721;DHT22;6932;51.438;5.470;2023-08-24T05:03:11;22.60;99.90
13721;DHT22;6932;51.438;5.470;2023-08-24T05:05:37;22.60;99.90
13721;DHT22;6932;51.438;5.470;2023-08-24T05:08:05;22.60;99.90
13721;DHT22;6932;51.438;5.470;2023-08-24T05:10:33;22.60;99.90
13721;DHT22;6932;51.438;5.470;2023-08-24T05:12:59;22.60;99.90
13721;DHT22;6932;51.438;5.470;2023-08-24T05:15:26;22.50;99.90
13721;DHT22;6932;51.438;5.470;2023-08-24T05:17:52;22.50;99.90
13721;DHT22;6932;51.438;5.470;2023-08-24T05:20:20;22.50;99.90
13721;DHT22;6932;51.438;5.470;2023-08-24T05:22:47;22.50;99.90
13721;DHT22;6932;51.438;5.470;2023-08-24T05:25:13;22.50;99.90
13721;DHT22;6932;51.438;5.470;2023-08-24T05:27:39;22.50;99.90
13721;DHT22;6932;51.438;5.470;2023-08-24T05:30:06;22.50;99.90
13721;DHT22;6932;51.438;5.470;2023-08-24T05:32:32;22.50;99.90
13721;DHT22;6932;51.438;5.470;2023-08-24T05:34:58;22.50;99.90
13721;DHT22;6932;51.438;5.470;2023-08-24T05:37:24;22.50;99.90
13721;DHT22;6932;51.438;5.470;2023-08-24T05:39:50;22.50;99.90
13721;DHT22;6932;51.438;5.470;2023-08-24T05:42:15;22.50;99.90
13721;DHT22;6932;51.438;5.470;2023-08-24T05:44:41;22.50;99.90
13721;DHT22;6932;51.438;5.470;2023-08-24T05:47:07;22.50;99.90
13721;DHT22;6932;51.438;5.470;2023-08-24T05:49:33;22.50;99.90
13721;DHT22;6932;51.438;5.470;2023-08-24T05:51:58;22.50;99.90
13721;DHT22;6932;51.438;5.470;2023-08-24T05:54:24;22.50;99.90
13721;DHT22;6932;51.438;5.470;2023-08-24T05:56:50;22.50;99.90
13721;DHT22;6932;51.438;5.470;2023-08-24T05:59:16;22.60;99.90
13721;DHT22;6932;51.438;5.470;2023-08-24T06:01:42;22.60;99.90
13721;DHT22;6932;51.438;5.470;2023-08-24T06:04:10;22.70;99.90
13721;DHT22;6932;51.438;5.470;2023-08-24T06:06:37;22.70;99.90
13721;DHT22;6932;51.438;5.470;2023-08-24T06:09:03;22.80;99.90
13721;DHT22;6932;51.438;5.470;2023-08-24T06:11:32;22.90;99.90
13721;DHT22;6932;51.438;5.470;2023-08-24T06:13:58;23.00;99.90
13721;DHT22;6932;51.438;5.470;2023-08-24T06:16:24;23.10;99.90
13721;DHT22;6932;51.438;5.470;2023-08-24T06:18:50;23.20;99.90
13721;DHT22;6932;51.438;5.470;2023-08-24T06:21:16;23.30;99.90
13721;DHT22;6932;51.438;5.470;2023-08-24T06:23:42;23.40;99.90
13721;DHT22;6932;51.438;5.470;2023-08-24T06:26:09;23.50;99.90
13721;DHT22;6932;51.438;5.470;2023-08-24T06:28:35;23.60;99.90
13721;DHT22;6932;51.438;5.470;2023-08-24T06:31:01;23.70;99.90
13721;DHT22;6932;51.438;5.470;2023-08-24T06:33:28;23.90;99.90
13721;DHT22;6932;51.438;5.470;2023-08-24T06:35:57;24.10;99.90
13721;DHT22;6932;51.438;5.470;2023-08-24T06:38:22;24.40;99.90
13721;DHT22;6932;51.438;5.470;2023-08-24T06:40:48;24.60;99.90
13721;DHT22;6932;51.438;5.470;2023-08-24T06:43:14;24.70;99.90
13721;DHT22;6932;51.438;5.470;2023-08-24T06:45:40;25.00;99.90
13721;DHT22;6932;51.438;5.470;2023-08-24T06:48:06;25.10;99.90
13721;DHT22;6932;51.438;5.470;2023-08-24T06:50:33;25.30;99.90
13721;DHT22;6932;51.438;5.470;2023-08-24T06:52:59;25.40;99.90
13721;DHT22;6932;51.438;5.470;2023-08-24T06:55:26;25.50;99.90
13721;DHT22;6932;51.438;5.470;2023-08-24T06:57:52;25.60;99.90
13721;DHT22;6932;51.438;5.470;2023-08-24T07:00:21;25.80;99.90
13721;DHT22;6932;51.438;5.470;2023-08-24T07:02:49;26.00;99.90
13721;DHT22;6932;51.438;5.470;2023-08-24T07:05:15;26.20;99.90
13721;DHT22;6932;51.438;5.470;2023-08-24T07:07:44;26.30;99.90
13721;DHT22;6932;51.438;5.470;2023-08-24T07:10:11;26.30;99.90
13721;DHT22;6932;51.438;5.470;2023-08-24T07:12:37;26.40;99.90
13721;DHT22;6932;51.438;5.470;2023-08-24T07:15:06;26.40;99.90
13721;DHT22;6932;51.438;5.470;2023-08-24T07:17:33;26.50;99.90
13721;DHT22;6932;51.438;5.470;2023-08-24T07:19:59;26.60;99.90
13721;DHT22;6932;51.438;5.470;2023-08-24T07:22:25;26.60;99.90
13721;DHT22;6932;51.438;5.470;2023-08-24T07:24:52;26.60;99.90
13721;DHT22;6932;51.438;5.470;2023-08-24T07:27:18;26.70;99.90
13721;DHT22;6932;51.438;5.470;2023-08-24T07:29:44;26.80;99.90
13721;DHT22;6932;51.438;5.470;2023-08-24T07:32:10;26.90;99.90
13721;DHT22;6932;51.438;5.470;2023-08-24T07:34:36;27.00;99.90
13721;DHT22;6932;51.438;5.470;2023-08-24T07:37:02;27.00;99.90
13721;DHT22;6932;51.438;5.470;2023-08-24T07:39:28;27.10;99.90
13721;DHT22;6932;51.438;5.470;2023-08-24T07:41:54;27.20;99.90
13721;DHT22;6932;51.438;5.470;2023-08-24T07:44:20;27.30;99.90
13721;DHT22;6932;51.438;5.470;2023-08-24T07:46:47;27.40;99.60
13721;DHT22;6932;51.438;5.470;2023-08-24T07:49:13;27.50;99.70
13721;DHT22;6932;51.438;5.470;2023-08-24T07:51:39;27.50;99.40
13721;DHT22;6932;51.438;5.470;2023-08-24T07:54:06;27.50;99.20
13721;DHT22;6932;51.438;5.470;2023-08-24T07:56:32;27.60;99.10
13721;DHT22;6932;51.438;5.470;2023-08-24T07:58:58;27.60;99.00
13721;DHT22;6932;51.438;5.470;2023-08-24T08:01:24;27.70;98.90
13721;DHT22;6932;51.438;5.470;2023-08-24T08:03:50;27.70;98.80
13721;DHT22;6932;51.438;5.470;2023-08-24T08:06:16;27.70;98.60
13721;DHT22;6932;51.438;5.470;2023-08-24T08:08:41;27.80;98.70
13721;DHT22;6932;51.438;5.470;2023-08-24T08:11:07;27.80;98.50
13721;DHT22;6932;51.438;5.470;2023-08-24T08:13:33;27.80;98.40
13721;DHT22;6932;51.438;5.470;2023-08-24T08:16:04;27.80;98.80
13721;DHT22;6932;51.438;5.470;2023-08-24T08:18:34;27.90;98.70
13721;DHT22;6932;51.438;5.470;2023-08-24T08:21:01;27.90;98.60
13721;DHT22;6932;51.438;5.470;2023-08-24T08:23:37;28.00;98.20
13721;DHT22;6932;51.438;5.470;2023-08-24T08:26:03;28.00;98.30
13721;DHT22;6932;51.438;5.470;2023-08-24T08:28:28;28.10;98.30
13721;DHT22;6932;51.438;5.470;2023-08-24T08:30:54;28.10;98.40
13721;DHT22;6932;51.438;5.470;2023-08-24T08:33:20;28.10;98.40
13721;DHT22;6932;51.438;5.470;2023-08-24T08:35:47;28.10;98.50
13721;DHT22;6932;51.438;5.470;2023-08-24T08:38:13;28.10;98.60
13721;DHT22;6932;51.438;5.470;2023-08-24T08:40:38;28.20;98.60
13721;DHT22;6932;51.438;5.470;2023-08-24T08:43:06;28.30;98.20
13721;DHT22;6932;51.438;5.470;2023-08-24T08:45:32;28.40;98.20
13721;DHT22;6932;51.438;5.470;2023-08-24T08:47:59;28.50;98.40
13721;DHT22;6932;51.438;5.470;2023-08-24T08:50:26;28.50;98.50
13721;DHT22;6932;51.438;5.470;2023-08-24T08:52:53;28.50;98.20
13721;DHT22;6932;51.438;5.470;2023-08-24T08:55:19;28.50;98.30
13721;DHT22;6932;51.438;5.470;2023-08-24T08:57:48;28.50;98.60
13721;DHT22;6932;51.438;5.470;2023-08-24T09:00:18;28.50;98.50
13721;DHT22;6932;51.438;5.470;2023-08-24T09:02:45;28.50;98.50
13721;DHT22;6932;51.438;5.470;2023-08-24T09:05:14;28.50;98.50
13721;DHT22;6932;51.438;5.470;2023-08-24T09:07:41;28.50;98.80
13721;DHT22;6932;51.438;5.470;2023-08-24T09:10:08;28.40;98.70
13721;DHT22;6932;51.438;5.470;2023-08-24T09:12:34;28.40;98.80
13721;DHT22;6932;51.438;5.470;2023-08-24T09:15:07;28.40;98.90
13721;DHT22;6932;51.438;5.470;2023-08-24T09:17:33;28.30;99.20
13721;DHT22;6932;51.438;5.470;2023-08-24T09:20:00;28.40;99.20
13721;DHT22;6932;51.438;5.470;2023-08-24T09:22:36;28.50;99.30
13721;DHT22;6932;51.438;5.470;2023-08-24T09:25:03;28.50;99.30
13721;DHT22;6932;51.438;5.470;2023-08-24T09:27:32;28.60;99.10
13721;DHT22;6932;51.438;5.470;2023-08-24T09:29:57;28.60;99.10
13721;DHT22;6932;51.438;5.470;2023-08-24T09:32:30;28.60;98.90
13721;DHT22;6932;51.438;5.470;2023-08-24T09:35:12;28.60;99.30
13721;DHT22;6932;51.438;5.470;2023-08-24T09:37:39;28.60;99.20
13721;DHT22;6932;51.438;5.470;2023-08-24T09:40:07;28.70;99.20
13721;DHT22;6932;51.438;5.470;2023-08-24T09:42:43;28.80;99.50
13721;DHT22;6932;51.438;5.470;2023-08-24T09:45:13;28.90;99.10
13721;DHT22;6932;51.438;5.470;2023-08-24T09:47:39;28.90;99.20
13721;DHT22;6932;51.438;5.470;2023-08-24T09:50:10;29.00;98.30
13721;DHT22;6932;51.438;5.470;2023-08-24T09:52:37;29.10;98.60
13721;DHT22;6932;51.438;5.470;2023-08-24T09:55:09;29.20;98.40
13721;DHT22;6932;51.438;5.470;2023-08-24T09:57:38;29.20;97.90
13721;DHT22;6932;51.438;5.470;2023-08-24T10:00:09;29.30;98.20
13721;DHT22;6932;51.438;5.470;2023-08-24T10:02:49;29.30;98.00
13721;DHT22;6932;51.438;5.470;2023-08-24T10:05:26;29.30;98.00
13721;DHT22;6932;51.438;5.470;2023-08-24T10:07:55;29.30;98.00
13721;DHT22;6932;51.438;5.470;2023-08-24T10:10:25;29.40;97.70
13721;DHT22;6932;51.438;5.470;2023-08-24T10:12:57;29.40;97.90
13721;DHT22;6932;51.438;5.470;2023-08-24T10:15:26;29.40;98.00
13721;DHT22;6932;51.438;5.470;2023-08-24T10:17:53;29.40;98.00
13721;DHT22;6932;51.438;5.470;2023-08-24T10:20:21;29.40;98.00
13721;DHT22;6932;51.438;5.470;2023-08-24T10:22:47;29.30;98.10
13721;DHT22;6932;51.438;5.470;2023-08-24T10:25:16;29.30;98.10
13721;DHT22;6932;51.438;5.470;2023-08-24T10:27:44;29.20;98.20
13721;DHT22;6932;51.438;5.470;2023-08-24T10:30:14;29.20;98.20
13721;DHT22;6932;51.438;5.470;2023-08-24T10:32:41;29.10;98.50
13721;DHT22;6932;51.438;5.470;2023-08-24T10:35:08;29.10;98.50
13721;DHT22;6932;51.438;5.470;2023-08-24T10:37:34;29.10;98.60
13721;DHT22;6932;51.438;5.470;2023-08-24T10:40:00;29.10;98.80
13721;DHT22;6932;51.438;5.470;2023-08-24T10:42:26;29.00;98.70
13721;DHT22;6932;51.438;5.470;2023-08-24T10:44:53;29.00;98.80
13721;DHT22;6932;51.438;5.470;2023-08-24T10:47:23;29.00;99.00
13721;DHT22;6932;51.438;5.470;2023-08-24T10:52:24;29.00;99.20
13721;DHT22;6932;51.438;5.470;2023-08-24T10:54:57;29.00;99.40
13721;DHT22;6932;51.438;5.470;2023-08-24T10:57:27;28.90;99.60
13721;DHT22;6932;51.438;5.470;2023-08-24T11:00:09;28.90;99.70
13721;DHT22;6932;51.438;5.470;2023-08-24T11:02:47;28.90;99.70
13721;DHT22;6932;51.438;5.470;2023-08-24T11:08:04;28.80;99.90
13721;DHT22;6932;51.438;5.470;2023-08-24T11:13:13;28.70;99.90
13721;DHT22;6932;51.438;5.470;2023-08-24T11:15:46;28.70;99.90
13721;DHT22;6932;51.438;5.470;2023-08-24T11:20:51;28.60;99.90
13721;DHT22;6932;51.438;5.470;2023-08-24T11:23:21;28.60;99.90
13721;DHT22;6932;51.438;5.470;2023-08-24T11:25:51;28.60;99.90
13721;DHT22;6932;51.438;5.470;2023-08-24T11:28:22;28.60;99.90
13721;DHT22;6932;51.438;5.470;2023-08-24T11:30:49;28.60;99.90
13721;DHT22;6932;51.438;5.470;2023-08-24T11:33:32;28.60;99.90
13721;DHT22;6932;51.438;5.470;2023-08-24T11:36:00;28.60;99.90
13721;DHT22;6932;51.438;5.470;2023-08-24T11:38:45;28.60;99.90
13721;DHT22;6932;51.438;5.470;2023-08-24T11:41:16;28.50;99.90
13721;DHT22;6932;51.438;5.470;2023-08-24T11:43:44;28.50;99.90
13721;DHT22;6932;51.438;5.470;2023-08-24T11:46:12;28.50;99.90
13721;DHT22;6932;51.438;5.470;2023-08-24T11:48:40;28.40;99.90
13721;DHT22;6932;51.438;5.470;2023-08-24T11:51:10;28.40;99.90
13721;DHT22;6932;51.438;5.470;2023-08-24T11:53:43;28.40;99.90
13721;DHT22;6932;51.438;5.470;2023-08-24T11:56:10;28.30;99.90
13721;DHT22;6932;51.438;5.470;2023-08-24T11:58:38;28.20;99.90
13721;DHT22;6932;51.438;5.470;2023-08-24T12:01:06;28.20;99.90
13721;DHT22;6932;51.438;5.470;2023-08-24T12:03:33;28.20;99.90
13721;DHT22;6932;51.438;5.470;2023-08-24T12:06:00;28.10;99.90
13721;DHT22;6932;51.438;5.470;2023-08-24T12:08:29;28.00;99.90
13721;DHT22;6932;51.438;5.470;2023-08-24T12:10:55;27.90;99.90
13721;DHT22;6932;51.438;5.470;2023-08-24T12:13:22;27.90;99.90
13721;DHT22;6932;51.438;5.470;2023-08-24T12:15:47;27.90;99.90
13721;DHT22;6932;51.438;5.470;2023-08-24T12:18:16;27.90;99.90
13721;DHT22;6932;51.438;5.470;2023-08-24T12:20:41;27.90;99.90
13721;DHT22;6932;51.438;5.470;2023-08-24T12:23:11;27.90;99.90
13721;DHT22;6932;51.438;5.470;2023-08-24T12:25:38;27.90;99.90
13721;DHT22;6932;51.438;5.470;2023-08-24T12:28:09;27.90;99.90
13721;DHT22;6932;51.438;5.470;2023-08-24T12:33:26;28.00;99.90
13721;DHT22;6932;51.438;5.470;2023-08-24T12:35:54;28.00;99.90
13721;DHT22;6932;51.438;5.470;2023-08-24T12:38:22;28.00;99.90
13721;DHT22;6932;51.438;5.470;2023-08-24T12:40:49;28.10;99.90
13721;DHT22;6932;51.438;5.470;2023-08-24T12:43:15;28.10;99.90
13721;DHT22;6932;51.438;5.470;2023-08-24T12:45:41;28.20;99.90
13721;DHT22;6932;51.438;5.470;2023-08-24T12:48:08;28.20;99.90
13721;DHT22;6932;51.438;5.470;2023-08-24T12:50:35;28.20;99.90
13721;DHT22;6932;51.438;5.470;2023-08-24T12:53:01;28.20;99.90
13721;DHT22;6932;51.438;5.470;2023-08-24T12:55:28;28.20;99.90
13721;DHT22;6932;51.438;5.470;2023-08-24T12:57:54;28.20;99.90
13721;DHT22;6932;51.438;5.470;2023-08-24T13:00:21;28.20;99.90
13721;DHT22;6932;51.438;5.470;2023-08-24T13:02:48;28.20;99.90
13721;DHT22;6932;51.438;5.470;2023-08-24T13:05:14;28.10;99.90
13721;DHT22;6932;51.438;5.470;2023-08-24T13:07:40;28.20;99.90
13721;DHT22;6932;51.438;5.470;2023-08-24T13:10:06;28.10;99.90
13721;DHT22;6932;51.438;5.470;2023-08-24T13:12:33;28.20;99.90
13721;DHT22;6932;51.438;5.470;2023-08-24T13:15:00;28.20;99.90
13721;DHT22;6932;51.438;5.470;2023-08-24T13:17:29;28.20;99.90
13721;DHT22;6932;51.438;5.470;2023-08-24T13:19:55;28.20;99.90
13721;DHT22;6932;51.438;5.470;2023-08-24T13:22:21;28.20;99.90
13721;DHT22;6932;51.438;5.470;2023-08-24T13:24:47;28.20;99.90
13721;DHT22;6932;51.438;5.470;2023-08-24T13:27:12;28.20;99.90
13721;DHT22;6932;51.438;5.470;2023-08-24T13:29:39;28.20;99.90
13721;DHT22;6932;51.438;5.470;2023-08-24T13:32:06;28.10;99.90
13721;DHT22;6932;51.438;5.470;2023-08-24T13:34:32;28.10;99.90
13721;DHT22;6932;51.438;5.470;2023-08-24T13:36:58;28.10;99.90
13721;DHT22;6932;51.438;5.470;2023-08-24T13:39:27;28.10;99.90
13721;DHT22;6932;51.438;5.470;2023-08-24T13:41:58;28.10;99.90
13721;DHT22;6932;51.438;5.470;2023-08-24T13:44:24;28.00;99.90
13721;DHT22;6932;51.438;5.470;2023-08-24T13:46:51;28.00;99.90
13721;DHT22;6932;51.438;5.470;2023-08-24T13:49:20;27.90;99.90
13721;DHT22;6932;51.438;5.470;2023-08-24T13:51:46;27.90;99.90
13721;DHT22;6932;51.438;5.470;2023-08-24T13:54:19;27.90;99.90
13721;DHT22;6932;51.438;5.470;2023-08-24T13:56:47;27.80;99.90
13721;DHT22;6932;51.438;5.470;2023-08-24T13:59:15;27.80;99.90
13721;DHT22;6932;51.438;5.470;2023-08-24T14:01:41;27.80;99.90
13721;DHT22;6932;51.438;5.470;2023-08-24T14:04:07;27.80;99.90
13721;DHT22;6932;51.438;5.470;2023-08-24T14:06:34;27.70;99.90
13721;DHT22;6932;51.438;5.470;2023-08-24T14:09:02;27.70;99.90
13721;DHT22;6932;51.438;5.470;2023-08-24T14:11:29;27.70;99.90
13721;DHT22;6932;51.438;5.470;2023-08-24T14:13:56;27.60;99.90
13721;DHT22;6932;51.438;5.470;2023-08-24T14:16:22;27.50;99.90
13721;DHT22;6932;51.438;5.470;2023-08-24T14:18:48;27.50;99.90
13721;DHT22;6932;51.438;5.470;2023-08-24T14:21:15;27.50;99.90
13721;DHT22;6932;51.438;5.470;2023-08-24T14:23:41;27.50;99.90
13721;DHT22;6932;51.438;5.470;2023-08-24T14:26:07;27.40;99.90
13721;DHT22;6932;51.438;5.470;2023-08-24T14:28:54;27.40;99.90
13721;DHT22;6932;51.438;5.470;2023-08-24T14:31:23;27.30;99.90
13721;DHT22;6932;51.438;5.470;2023-08-24T14:33:51;27.30;99.90
13721;DHT22;6932;51.438;5.470;2023-08-24T14:36:18;27.30;99.90
13721;DHT22;6932;51.438;5.470;2023-08-24T14:38:46;27.20;99.90
13721;DHT22;6932;51.438;5.470;2023-08-24T14:41:13;27.20;99.90
13721;DHT22;6932;51.438;5.470;2023-08-24T14:43:40;27.20;99.90
13721;DHT22;6932;51.438;5.470;2023-08-24T14:46:08;27.10;99.90
13721;DHT22;6932;51.438;5.470;2023-08-24T14:48:34;27.10;99.90
13721;DHT22;6932;51.438;5.470;2023-08-24T14:51:01;27.10;99.90
13721;DHT22;6932;51.438;5.470;2023-08-24T14:53:27;27.10;99.90
13721;DHT22;6932;51.438;5.470;2023-08-24T14:55:55;27.10;99.90
13721;DHT22;6932;51.438;5.470;2023-08-24T14:58:22;27.00;99.90
13721;DHT22;6932;51.438;5.470;2023-08-24T15:00:49;27.00;99.90
13721;DHT22;6932;51.438;5.470;2023-08-24T15:03:16;27.00;99.90
13721;DHT22;6932;51.438;5.470;2023-08-24T15:05:46;27.00;99.90
13721;DHT22;6932;51.438;5.470;2023-08-24T15:08:21;27.00;99.90
13721;DHT22;6932;51.438;5.470;2023-08-24T15:10:48;26.90;99.90
13721;DHT22;6932;51.438;5.470;2023-08-24T15:13:14;26.90;99.90
13721;DHT22;6932;51.438;5.470;2023-08-24T15:15:40;26.90;99.90
13721;DHT22;6932;51.438;5.470;2023-08-24T15:18:06;26.80;99.90
13721;DHT22;6932;51.438;5.470;2023-08-24T15:20:32;26.80;99.90
13721;DHT22;6932;51.438;5.470;2023-08-24T15:23:01;26.80;99.90
13721;DHT22;6932;51.438;5.470;2023-08-24T15:25:27;26.70;99.90
13721;DHT22;6932;51.438;5.470;2023-08-24T15:27:53;26.70;99.90
13721;DHT22;6932;51.438;5.470;2023-08-24T15:30:19;26.70;99.90
13721;DHT22;6932;51.438;5.470;2023-08-24T15:32:45;26.70;99.90
13721;DHT22;6932;51.438;5.470;2023-08-24T15:35:11;26.70;99.90
13721;DHT22;6932;51.438;5.470;2023-08-24T15:37:36;26.70;99.90
13721;DHT22;6932;51.438;5.470;2023-08-24T15:40:02;26.70;99.90
13721;DHT22;6932;51.438;5.470;2023-08-24T15:42:29;26.70;99.90
13721;DHT22;6932;51.438;5.470;2023-08-24T15:44:56;26.70;99.90
13721;DHT22;6932;51.438;5.470;2023-08-24T15:47:22;26.70;99.90
13721;DHT22;6932;51.438;5.470;2023-08-24T15:49:47;26.70;99.90
13721;DHT22;6932;51.438;5.470;2023-08-24T15:52:13;26.70;99.90
13721;DHT22;6932;51.438;5.470;2023-08-24T15:54:39;26.70;99.90
13721;DHT22;6932;51.438;5.470;2023-08-24T15:57:05;26.70;99.90
13721;DHT22;6932;51.438;5.470;2023-08-24T15:59:31;26.70;99.90
13721;DHT22;6932;51.438;5.470;2023-08-24T16:01:56;26.80;99.90
13721;DHT22;6932;51.438;5.470;2023-08-24T16:04:22;26.80;99.90
13721;DHT22;6932;51.438;5.470;2023-08-24T16:06:48;26.80;99.90